Time;durP1;ratioP1;P1;durP2;ratioP2;P2;SDS_P1;SDS_P2;PMS_P1;PMS_P2;Temp;Humidity;BMP_temperature;BMP_pressure;BME280_temperature;BME280_humidity;BME280_pressure;Samples;Min_cycle;Max_cycle;Signal;HPM_P1;HPM_P2
2023/04/23 05:02:59;;;;;;;4.07;1.50;;;13.60;99.90;;;;;;6133268;23;20283;-78
2023/04/23 05:06:01;;;;;;;3.15;1.58;;;13.60;99.90;;;;;;6058959;29;20109;-79
2023/04/23 05:09:03;;;;;;;3.72;1.50;;;13.60;99.90;;;;;;6057625;29;20057;-80
2023/04/23 05:12:06;;;;;;;3.38;1.70;;;13.60;99.90;;;;;;6058451;29;20049;-78
2023/04/23 05:15:12;;;;;;;3.90;1.57;;;13.60;99.90;;;;;;6058408;29;20052;-81
2023/04/23 05:18:15;;;;;;;3.65;1.58;;;13.70;99.90;;;;;;6052866;29;20350;-79
2023/04/23 05:21:18;;;;;;;3.42;1.70;;;13.70;99.90;;;;;;6043539;29;20064;-78
2023/04/23 05:24:20;;;;;;;3.53;1.20;;;13.70;99.90;;;;;;6043503;29;20056;-79
2023/04/23 05:27:21;;;;;;;4.38;1.50;;;13.70;99.90;;;;;;6060228;29;20080;-80
2023/04/23 05:30:26;;;;;;;5.13;1.30;;;13.70;99.90;;;;;;6057769;29;20124;-79
2023/04/23 05:33:30;;;;;;;3.03;1.30;;;13.70;99.90;;;;;;6058560;29;20057;-80
2023/04/23 05:36:32;;;;;;;3.42;1.33;;;13.70;99.90;;;;;;6031543;29;20090;-79
2023/04/23 05:39:34;;;;;;;2.75;1.20;;;13.60;99.90;;;;;;6035226;29;20491;-79
2023/04/23 05:42:37;;;;;;;3.05;1.17;;;13.70;99.90;;;;;;6035660;29;20046;-78
2023/04/23 05:45:39;;;;;;;4.15;1.40;;;13.70;99.90;;;;;;6059160;29;20480;-78
2023/04/23 05:48:42;;;;;;;3.00;1.00;;;13.70;99.90;;;;;;6056434;29;20060;-77
2023/04/23 05:51:44;;;;;;;2.35;1.00;;;13.70;99.90;;;;;;6058192;29;20061;-80
2023/04/23 05:54:46;;;;;;;3.05;1.10;;;13.80;99.90;;;;;;6067332;29;20053;-78
2023/04/23 05:57:47;;;;;;;2.67;1.00;;;13.80;99.90;;;;;;6057492;29;20053;-80
2023/04/23 06:00:51;;;;;;;2.55;0.98;;;13.80;99.90;;;;;;6057444;29;20071;-80
2023/04/23 06:03:54;;;;;;;;;;;13.90;99.90;;;;;;6071597;29;20059;-78
2023/04/23 06:06:56;;;;;;;;;;;13.90;99.90;;;;;;6056012;29;19923;-80
2023/04/23 06:09:58;;;;;;;1.67;0.85;;;14.00;99.90;;;;;;6052950;29;19934;-78
2023/04/23 06:13:00;;;;;;;2.15;0.80;;;14.10;99.90;;;;;;6056285;29;20049;-79
2023/04/23 06:16:02;;;;;;;1.77;0.80;;;14.00;99.90;;;;;;6056945;29;20049;-78
2023/04/23 06:19:06;;;;;;;1.75;0.73;;;14.00;99.90;;;;;;6055521;29;20188;-79
2023/04/23 06:22:08;;;;;;;2.90;0.90;;;14.00;99.90;;;;;;6057294;29;20137;-79
2023/04/23 06:25:10;;;;;;;2.95;0.90;;;14.10;99.90;;;;;;6055568;29;20136;-79
2023/04/23 06:28:12;;;;;;;2.53;0.90;;;14.10;99.90;;;;;;6056543;29;20411;-79
2023/04/23 06:31:14;;;;;;;1.90;0.90;;;14.10;99.90;;;;;;6056023;29;20049;-78
2023/04/23 06:34:17;;;;;;;4.55;0.90;;;14.20;99.90;;;;;;6057446;29;20149;-78
2023/04/23 06:37:19;;;;;;;2.55;1.10;;;14.20;99.90;;;;;;6056743;29;20053;-80
2023/04/23 06:40:21;;;;;;;1.90;0.90;;;14.30;99.90;;;;;;6050061;29;20072;-77
2023/04/23 06:43:23;;;;;;;2.63;1.00;;;14.40;99.90;;;;;;6052714;29;20186;-77
2023/04/23 06:46:25;;;;;;;2.50;1.10;;;14.50;99.90;;;;;;6054223;29;20045;-80
2023/04/23 06:49:28;;;;;;;2.67;0.90;;;14.60;99.90;;;;;;6068148;29;20061;-79
2023/04/23 06:52:30;;;;;;;2.75;0.90;;;14.70;99.90;;;;;;6070506;29;20053;-78
2023/04/23 06:55:32;;;;;;;3.13;1.10;;;14.70;99.90;;;;;;6055849;29;20053;-75
2023/04/23 06:58:37;;;;;;;2.30;0.80;;;14.70;99.90;;;;;;6056045;29;20631;-76
2023/04/23 07:01:39;;;;;;;1.60;0.70;;;14.80;99.90;;;;;;6056579;29;20521;-75
2023/04/23 07:04:42;;;;;;;1.85;0.82;;;14.90;99.90;;;;;;6057040;29;20049;-77
2023/04/23 07:07:44;;;;;;;2.63;0.90;;;14.80;99.90;;;;;;6056147;29;20057;-75
2023/04/23 07:10:47;;;;;;;2.47;0.80;;;14.80;99.90;;;;;;6055776;29;20052;-79
2023/04/23 07:13:49;;;;;;;2.38;0.85;;;14.70;99.90;;;;;;6050799;29;20052;-80
2023/04/23 07:16:51;;;;;;;2.53;0.90;;;14.60;99.90;;;;;;6055380;29;20491;-78
2023/04/23 07:19:54;;;;;;;1.58;0.70;;;14.70;99.90;;;;;;6052865;29;20194;-79
2023/04/23 07:22:56;;;;;;;1.65;0.73;;;14.80;99.90;;;;;;6052441;29;20510;-80
2023/04/23 07:25:58;;;;;;;2.78;0.80;;;14.60;99.90;;;;;;6058471;29;20439;-77
2023/04/23 07:29:01;;;;;;;2.83;0.88;;;14.60;99.90;;;;;;6060761;29;20495;-78
2023/04/23 07:32:03;;;;;;;2.25;0.85;;;14.70;99.90;;;;;;6060907;29;20114;-78
2023/04/23 07:35:09;;;;;;;2.20;0.77;;;14.70;99.90;;;;;;6059736;29;20080;-78
2023/04/23 07:38:11;;;;;;;2.75;0.80;;;14.70;99.90;;;;;;6053402;29;20183;-77
2023/04/23 07:41:12;;;;;;;3.70;0.90;;;14.70;99.90;;;;;;6066446;29;20045;-79
2023/04/23 07:44:14;;;;;;;1.63;0.70;;;14.80;99.90;;;;;;6069695;29;20064;-77
2023/04/23 07:47:16;;;;;;;2.65;0.85;;;14.90;99.90;;;;;;6074643;29;20079;-76
2023/04/23 07:50:20;;;;;;;2.78;0.85;;;14.90;99.10;;;;;;6066935;29;20053;-75
2023/04/23 07:53:22;;;;;;;2.10;1.00;;;15.10;99.00;;;;;;6074097;29;20045;-77
2023/04/23 07:56:24;;;;;;;2.15;0.85;;;15.10;99.20;;;;;;6063384;29;20049;-76
2023/04/23 07:59:26;;;;;;;1.70;0.80;;;15.30;98.50;;;;;;6060740;29;20060;-75
2023/04/23 08:02:28;;;;;;;2.00;0.68;;;15.40;98.20;;;;;;6060549;29;20061;-77
2023/04/23 08:05:31;;;;;;;3.33;1.00;;;15.40;97.70;;;;;;6058633;29;20049;-77
2023/04/23 08:08:32;;;;;;;2.20;0.75;;;15.30;97.90;;;;;;6060136;29;20052;-80
2023/04/23 08:11:34;;;;;;;1.98;0.70;;;15.50;97.50;;;;;;6059632;29;20060;-75
2023/04/23 08:14:36;;;;;;;1.25;0.60;;;15.60;97.10;;;;;;6059302;29;20049;-76
2023/04/23 08:17:38;;;;;;;1.25;0.57;;;15.70;97.00;;;;;;6058394;29;20052;-76
2023/04/23 08:20:41;;;;;;;1.90;0.60;;;15.70;96.40;;;;;;6059688;29;20052;-75
2023/04/23 08:23:43;;;;;;;3.42;0.80;;;15.60;96.20;;;;;;6059049;29;20064;-73
2023/04/23 08:26:45;;;;;;;2.00;0.70;;;15.60;95.90;;;;;;6058972;29;20053;-74
2023/04/23 08:29:47;;;;;;;3.17;0.80;;;15.60;96.00;;;;;;6059302;29;20139;-77
2023/04/23 08:32:52;;;;;;;1.83;0.60;;;15.60;96.20;;;;;;6058683;29;20060;-75
2023/04/23 08:35:55;;;;;;;1.83;0.60;;;15.80;96.20;;;;;;6059462;29;20063;-75
2023/04/23 08:38:57;;;;;;;1.92;0.70;;;15.90;95.90;;;;;;6057440;29;20053;-77
2023/04/23 08:42:11;;;;;;;1.38;0.60;;;16.00;95.50;;;;;;6058902;29;20072;-77
2023/04/23 08:45:13;;;;;;;1.90;0.80;;;16.10;95.30;;;;;;6059244;29;20054;-78
2023/04/23 08:48:15;;;;;;;2.08;0.70;;;16.10;95.50;;;;;;6059163;29;20072;-75
2023/04/23 08:51:21;;;;;;;2.60;0.70;;;16.10;94.70;;;;;;6058211;29;20076;-75
2023/04/23 08:54:27;;;;;;;2.78;0.90;;;15.90;94.80;;;;;;6059452;29;20060;-75
2023/04/23 08:57:31;;;;;;;2.72;0.80;;;16.00;95.30;;;;;;6059138;29;20049;-76
2023/04/23 09:00:34;;;;;;;2.42;0.70;;;16.30;95.30;;;;;;6058492;29;20053;-75
2023/04/23 09:03:36;;;;;;;2.17;0.90;;;16.50;95.20;;;;;;6058375;29;20053;-76
2023/04/23 09:06:40;;;;;;;2.03;0.90;;;16.20;95.20;;;;;;6058850;29;20085;-75
2023/04/23 09:09:42;;;;;;;1.48;0.60;;;16.30;95.20;;;;;;6057882;29;20410;-74
2023/04/23 09:12:45;;;;;;;2.53;0.80;;;16.40;95.20;;;;;;6057673;29;20053;-76
2023/04/23 09:15:47;;;;;;;3.80;1.00;;;16.40;95.00;;;;;;6056289;29;20056;-76
2023/04/23 09:18:50;;;;;;;2.40;0.95;;;16.60;95.20;;;;;;6035876;29;20049;-76
2023/04/23 09:21:54;;;;;;;2.33;0.85;;;16.60;94.40;;;;;;6048066;29;20052;-75
2023/04/23 09:24:55;;;;;;;2.15;0.90;;;16.60;94.50;;;;;;6056754;29;20060;-75
2023/04/23 09:28:00;;;;;;;1.38;0.70;;;16.70;94.40;;;;;;6058521;29;20053;-75
2023/04/23 09:31:02;;;;;;;2.03;0.80;;;16.60;93.40;;;;;;6058007;29;20048;-78
2023/04/23 09:34:04;;;;;;;3.85;1.13;;;16.80;92.80;;;;;;6046459;29;20060;-72
2023/04/23 09:37:09;;;;;;;2.80;0.90;;;16.70;92.30;;;;;;6058188;29;20056;-76
2023/04/23 09:40:14;;;;;;;1.65;0.75;;;16.90;92.30;;;;;;6058612;29;20057;-75
2023/04/23 09:43:16;;;;;;;4.82;2.33;;;17.10;91.90;;;;;;6057180;29;20049;-77
2023/04/23 09:46:17;;;;;;;3.25;1.00;;;17.30;92.30;;;;;;6057812;29;20056;-75
2023/04/23 09:49:19;;;;;;;3.78;1.00;;;17.40;92.10;;;;;;6057405;29;20056;-75
2023/04/23 09:52:22;;;;;;;1.80;0.80;;;17.40;92.10;;;;;;6057570;29;20049;-75
2023/04/23 09:55:33;;;;;;;3.08;1.00;;;17.20;90.80;;;;;;6058004;29;20049;-75
2023/04/23 09:58:37;;;;;;;2.72;1.00;;;17.10;92.00;;;;;;6057181;29;20484;-78
2023/04/23 10:01:45;;;;;;;3.28;1.00;;;17.30;91.80;;;;;;6057105;29;20065;-76
2023/04/23 10:04:52;;;;;;;3.00;1.23;;;17.40;91.40;;;;;;6058048;29;20049;-76
2023/04/23 10:07:56;;;;;;;3.63;1.00;;;17.30;90.80;;;;;;6057809;29;20475;-75
2023/04/23 10:10:58;;;;;;;2.80;1.17;;;17.40;91.60;;;;;;6056806;29;20135;-74
2023/04/23 10:14:00;;;;;;;2.30;0.90;;;17.60;91.60;;;;;;6057590;29;20053;-75
2023/04/23 10:17:04;;;;;;;3.25;0.80;;;17.90;91.20;;;;;;6058419;29;20049;-74
2023/04/23 10:20:08;;;;;;;1.77;0.68;;;18.00;90.50;;;;;;6056273;29;20411;-75
2023/04/23 10:23:13;;;;;;;3.97;0.90;;;18.00;90.00;;;;;;6057021;29;20057;-78
2023/04/23 10:26:16;;;;;;;1.88;0.80;;;18.00;89.90;;;;;;6057129;29;20060;-79
2023/04/23 10:29:19;;;;;;;;;;;18.10;89.80;;;;;;6057646;29;20057;-77
2023/04/23 10:32:21;;;;;;;1.70;0.82;;;18.10;89.30;;;;;;6057713;29;19930;-78
2023/04/23 10:35:23;;;;;;;2.45;0.90;;;18.10;89.40;;;;;;6055155;29;20045;-80
2023/04/23 10:38:28;;;;;;;2.42;1.05;;;18.30;89.10;;;;;;6056815;29;20045;-75
2023/04/23 10:41:36;;;;;;;3.25;1.00;;;18.20;90.00;;;;;;6057727;29;20056;-75
2023/04/23 10:44:39;;;;;;;3.92;1.52;;;18.20;90.60;;;;;;6056945;29;20053;-74
2023/04/23 10:47:44;;;;;;;4.40;1.20;;;18.40;90.10;;;;;;6057585;29;20056;-77
2023/04/23 10:50:46;;;;;;;2.63;1.10;;;18.40;90.30;;;;;;6057112;29;20411;-76
2023/04/23 10:53:51;;;;;;;3.03;1.30;;;18.60;90.20;;;;;;6059230;29;20049;-76
2023/04/23 10:57:00;;;;;;;2.97;1.00;;;18.80;90.00;;;;;;6061776;29;20510;-76
2023/04/23 11:00:03;;;;;;;3.55;1.30;;;19.00;88.10;;;;;;6061761;29;20048;-76
2023/04/23 11:03:05;;;;;;;3.22;1.20;;;19.00;88.30;;;;;;6060100;29;20151;-78
2023/04/23 11:06:08;;;;;;;4.13;1.20;;;19.10;87.20;;;;;;6060909;29;20052;-75
2023/04/23 11:09:40;;;;;;;2.63;1.27;;;19.10;88.20;;;;;;6060577;29;20476;-79
2023/04/23 11:12:42;;;;;;;;;;;19.30;89.90;;;;;;6030222;29;20157;-76
2023/04/23 11:15:44;;;;;;;2.70;1.00;;;19.30;86.90;;;;;;6062207;29;20072;-77
2023/04/23 11:18:56;;;;;;;2.17;0.93;;;18.80;86.10;;;;;;6061772;29;20488;-76
2023/04/23 11:22:00;;;;;;;3.70;0.98;;;19.00;85.20;;;;;;6036316;29;20064;-77
2023/04/23 11:25:07;;;;;;;3.78;1.20;;;19.10;85.10;;;;;;6056147;29;20411;-76
2023/04/23 11:28:09;;;;;;;4.43;1.90;;;19.20;87.00;;;;;;6057534;29;20060;-77
2023/04/23 11:31:11;;;;;;;1.98;1.00;;;19.50;85.10;;;;;;6056081;29;20495;-78
2023/04/23 11:34:13;;;;;;;5.75;2.65;;;19.50;84.40;;;;;;6040629;29;20045;-78
2023/04/23 11:37:16;;;;;;;3.80;1.25;;;19.80;86.00;;;;;;6057497;29;20061;-78
2023/04/23 11:40:23;;;;;;;;;;;19.70;83.70;;;;;;6058270;29;20056;-78
2023/04/23 11:43:28;;;;;;;3.55;1.42;;;19.60;83.60;;;;;;6057468;29;19985;-77
2023/04/23 11:46:29;;;;;;;2.70;0.93;;;19.60;82.00;;;;;;6055995;29;20053;-78
2023/04/23 11:49:31;;;;;;;3.33;1.60;;;19.60;78.20;;;;;;6057541;29;20053;-77
2023/04/23 11:52:33;;;;;;;3.53;1.40;;;19.70;79.40;;;;;;6060098;29;20479;-77
2023/04/23 11:55:42;;;;;;;2.90;1.25;;;19.70;79.50;;;;;;6060180;29;20192;-78
2023/04/23 11:58:44;;;;;;;2.17;1.00;;;20.00;79.60;;;;;;6060665;29;20057;-77
2023/04/23 12:01:49;;;;;;;2.33;0.95;;;20.20;78.90;;;;;;6060079;29;20144;-78
2023/04/23 12:04:52;;;;;;;2.72;1.30;;;20.00;78.80;;;;;;6059740;29;20084;-78
2023/04/23 12:07:54;;;;;;;2.67;1.10;;;20.00;80.50;;;;;;6059979;29;20101;-79
2023/04/23 12:11:02;;;;;;;2.05;0.90;;;20.20;80.10;;;;;;6060459;29;20056;-78
2023/04/23 12:14:03;;;;;;;2.70;0.90;;;20.50;78.60;;;;;;6059901;29;20488;-77
2023/04/23 12:17:11;;;;;;;2.65;1.10;;;20.70;75.30;;;;;;6059099;29;20045;-78
2023/04/23 12:20:18;;;;;;;2.00;0.95;;;20.70;75.80;;;;;;6047642;29;20053;-79
2023/04/23 12:23:26;;;;;;;2.63;0.95;;;20.80;75.30;;;;;;6043200;29;20057;-77
2023/04/23 12:26:30;;;;;;;2.13;0.80;;;21.10;75.60;;;;;;6059637;29;20053;-78
2023/04/23 12:29:31;;;;;;;1.88;0.80;;;21.00;72.90;;;;;;6059801;29;20064;-78
2023/04/23 12:32:34;;;;;;;2.50;1.08;;;21.20;72.90;;;;;;6058683;29;20054;-79
2023/04/23 12:35:40;;;;;;;2.65;1.00;;;21.40;74.00;;;;;;6059384;29;20057;-78
2023/04/23 12:38:42;;;;;;;2.65;0.90;;;21.50;74.50;;;;;;6057945;29;20049;-79
2023/04/23 12:41:45;;;;;;;1.90;0.90;;;21.60;74.90;;;;;;6059638;29;20045;-77
2023/04/23 12:44:47;;;;;;;;;;;21.60;74.60;;;;;;6058944;29;20053;-79
2023/04/23 12:47:49;;;;;;;2.97;0.87;;;21.70;72.90;;;;;;6059518;29;19944;-79
2023/04/23 12:50:51;;;;;;;3.95;1.20;;;22.00;71.80;;;;;;6058617;29;20503;-78
2023/04/23 12:53:53;;;;;;;2.97;0.90;;;22.30;72.70;;;;;;6059043;29;20412;-79
2023/04/23 12:56:56;;;;;;;3.42;1.10;;;22.10;73.10;;;;;;6059220;29;20057;-78
2023/04/23 13:00:01;;;;;;;3.08;1.13;;;21.90;72.00;;;;;;6058124;29;20053;-78
2023/04/23 13:03:03;;;;;;;2.25;0.93;;;21.60;70.30;;;;;;6058202;29;20061;-77
2023/04/23 13:06:06;;;;;;;2.22;0.90;;;21.50;69.20;;;;;;6058932;29;20057;-77
2023/04/23 13:09:09;;;;;;;3.25;1.00;;;21.40;70.70;;;;;;6057702;29;20045;-79
2023/04/23 13:12:12;;;;;;;2.03;0.80;;;21.50;69.30;;;;;;6058201;29;20391;-79
2023/04/23 13:15:14;;;;;;;2.92;1.00;;;21.80;70.10;;;;;;6042095;29;20479;-78
2023/04/23 13:18:16;;;;;;;2.83;0.85;;;21.90;69.50;;;;;;6057162;29;20098;-78
2023/04/23 13:21:18;;;;;;;3.83;1.45;;;22.00;66.50;;;;;;6058056;29;20049;-79
2023/04/23 13:24:20;;;;;;;3.63;1.85;;;22.20;67.80;;;;;;6058586;29;20060;-78
2023/04/23 13:27:24;;;;;;;2.65;0.85;;;22.20;66.90;;;;;;6058672;29;20053;-78
2023/04/23 13:30:26;;;;;;;2.13;0.90;;;22.00;68.20;;;;;;6056328;29;20506;-78
2023/04/23 13:33:28;;;;;;;2.63;0.98;;;21.50;65.80;;;;;;6058520;29;20079;-78
2023/04/23 13:36:30;;;;;;;2.45;0.90;;;21.30;67.70;;;;;;6054803;29;20041;-78
2023/04/23 13:39:32;;;;;;;2.45;0.80;;;21.40;66.60;;;;;;6054180;29;20064;-77
2023/04/23 13:42:35;;;;;;;1.95;0.90;;;21.20;68.20;;;;;;6057422;29;20192;-79
2023/04/23 13:45:37;;;;;;;1.63;0.73;;;21.10;68.40;;;;;;6057415;29;20407;-76
2023/04/23 13:48:39;;;;;;;3.20;1.10;;;21.00;69.40;;;;;;6057324;29;20058;-77
2023/04/23 13:51:41;;;;;;;2.00;0.80;;;20.80;68.60;;;;;;6058758;29;20484;-79
2023/04/23 13:54:43;;;;;;;3.03;0.90;;;20.90;68.90;;;;;;6058359;29;20092;-78
2023/04/23 13:57:46;;;;;;;2.70;0.90;;;20.80;69.40;;;;;;6057630;29;20060;-76
2023/04/23 14:00:48;;;;;;;2.50;0.90;;;20.80;69.50;;;;;;6056279;29;20068;-76
2023/04/23 14:03:50;;;;;;;2.05;0.90;;;21.10;70.30;;;;;;6062996;29;20061;-75
2023/04/23 14:06:52;;;;;;;3.08;1.02;;;21.70;69.20;;;;;;6062583;29;20391;-79
2023/04/23 14:09:54;;;;;;;3.72;0.80;;;22.10;68.60;;;;;;6063454;29;20053;-75
2023/04/23 14:12:57;;;;;;;2.85;0.95;;;22.70;65.10;;;;;;6061669;29;20060;-77
2023/04/23 14:15:59;;;;;;;2.63;1.00;;;22.60;66.20;;;;;;6058201;29;20049;-76
2023/04/23 17:54:20;;;;;;;3.70;0.80;;;20.80;86.20;;;;;;6367122;27;20362;-76
2023/04/23 17:57:23;;;;;;;;;;;19.40;91.00;;;;;;6341677;28;20052;-78
2023/04/23 18:00:27;;;;;;;3.63;1.10;;;18.50;92.80;;;;;;6339274;28;19939;-75
2023/04/23 18:03:30;;;;;;;3.85;1.33;;;17.70;95.00;;;;;;6340765;28;20445;-77
2023/04/23 18:06:35;;;;;;;3.45;1.10;;;17.10;97.10;;;;;;6329544;28;20125;-76
2023/04/23 18:09:39;;;;;;;4.38;1.10;;;16.80;98.20;;;;;;6341991;28;20048;-74
2023/04/23 18:12:41;;;;;;;;;;;16.60;98.60;;;;;;6341673;28;20055;-75
2023/04/23 18:15:48;;;;;;;4.47;1.40;;;16.50;99.50;;;;;;6340959;28;20024;-75
2023/04/23 18:18:50;;;;;;;3.38;1.17;;;16.40;99.70;;;;;;6341012;28;20055;-76
2023/04/23 18:21:55;;;;;;;3.92;1.02;;;16.10;99.90;;;;;;6340908;28;20051;-75
2023/04/23 18:24:59;;;;;;;3.83;1.25;;;15.80;99.90;;;;;;6353839;27;20044;-78
2023/04/23 18:28:01;;;;;;;3.03;1.23;;;15.80;99.90;;;;;;6340561;28;20056;-77
2023/04/23 18:31:03;;;;;;;4.68;1.80;;;15.50;99.90;;;;;;6355480;28;20044;-78
2023/04/23 18:34:10;;;;;;;4.15;1.65;;;15.60;99.90;;;;;;6340998;28;20557;-77
2023/04/23 18:37:32;;;;;;;5.22;1.92;;;15.60;99.90;;;;;;6351941;27;20464;-77
2023/04/23 18:40:35;;;;;;;3.67;1.45;;;15.60;99.90;;;;;;6340809;27;20056;-78
2023/04/23 18:43:37;;;;;;;4.97;1.67;;;15.60;99.90;;;;;;6315515;28;20048;-77
2023/04/23 18:46:40;;;;;;;5.13;1.90;;;15.50;99.90;;;;;;6343106;28;20141;-80
2023/04/23 18:49:53;;;;;;;3.97;1.60;;;15.50;99.90;;;;;;6359308;27;20709;-78
2023/04/23 18:52:56;;;;;;;5.32;1.88;;;15.50;99.90;;;;;;6361204;27;20059;-75
2023/04/23 18:56:00;;;;;;;5.15;2.05;;;15.50;99.90;;;;;;6330766;28;20051;-80
2023/04/23 18:59:02;;;;;;;5.38;2.83;;;15.40;99.90;;;;;;6342773;28;20046;-79
2023/04/23 19:02:06;;;;;;;6.20;2.10;;;15.40;99.90;;;;;;6356100;27;20432;-78
2023/04/23 19:05:11;;;;;;;4.88;1.70;;;15.30;99.90;;;;;;6351085;28;20046;-77
2023/04/23 19:08:13;;;;;;;4.07;1.50;;;15.30;99.90;;;;;;6351794;28;20052;-77
2023/04/23 19:11:16;;;;;;;3.10;1.27;;;15.30;99.90;;;;;;6337856;28;20059;-76
2023/04/23 19:14:18;;;;;;;3.20;1.40;;;15.30;99.90;;;;;;6350296;28;20059;-77
2023/04/23 19:17:20;;;;;;;3.25;1.40;;;15.30;99.90;;;;;;6348922;28;20048;-78
2023/04/23 19:20:23;;;;;;;4.40;1.75;;;15.40;99.90;;;;;;6336159;28;20135;-79
2023/04/23 19:23:25;;;;;;;5.13;1.90;;;15.20;99.90;;;;;;6342163;28;20075;-77
2023/04/23 19:26:33;;;;;;;6.68;1.90;;;15.20;99.90;;;;;;6323942;28;20378;-78
2023/04/23 19:29:35;;;;;;;4.32;1.70;;;14.50;99.90;;;;;;6323497;28;20048;-74
2023/04/23 19:32:37;;;;;;;4.35;1.70;;;14.20;99.90;;;;;;6323300;28;20405;-78
2023/04/23 19:35:39;;;;;;;5.03;2.00;;;14.40;99.90;;;;;;6328089;28;20051;-78
2023/04/23 19:38:42;;;;;;;5.10;2.03;;;14.50;99.90;;;;;;6294916;28;20056;-77
2023/04/23 19:41:46;;;;;;;4.35;1.58;;;14.30;99.90;;;;;;6312357;28;20495;-78
2023/04/23 19:44:50;;;;;;;3.10;1.10;;;14.20;99.90;;;;;;6319218;28;20056;-78
2023/04/23 19:47:55;;;;;;;3.22;1.00;;;14.20;99.90;;;;;;6319632;28;20209;-79
2023/04/23 19:50:58;;;;;;;2.65;1.00;;;14.00;99.90;;;;;;6315913;28;20473;-78
2023/04/23 19:54:03;;;;;;;2.60;0.90;;;13.80;99.90;;;;;;6321329;28;20052;-78
2023/04/23 19:57:06;;;;;;;2.40;1.02;;;13.80;99.90;;;;;;6318114;28;20496;-77
2023/04/23 20:00:13;;;;;;;2.25;0.80;;;13.70;99.90;;;;;;6318712;28;20392;-80
2023/04/23 20:03:14;;;;;;;2.35;0.77;;;13.40;99.90;;;;;;6321192;28;20048;-78
2023/04/23 20:06:16;;;;;;;2.17;0.80;;;13.60;99.90;;;;;;6325569;28;20059;-77
2023/04/23 20:09:20;;;;;;;2.40;0.90;;;13.50;99.90;;;;;;6344514;28;20043;-77
2023/04/23 20:12:24;;;;;;;3.15;0.80;;;13.60;99.90;;;;;;6315767;28;20055;-80
2023/04/23 20:15:26;;;;;;;3.80;0.90;;;13.50;99.90;;;;;;6319927;28;20421;-77
2023/04/23 20:18:33;;;;;;;2.65;0.90;;;13.60;99.90;;;;;;6345550;28;20039;-78
2023/04/23 20:21:35;;;;;;;3.30;1.00;;;13.60;99.90;;;;;;6346644;28;20058;-78
2023/04/23 20:24:39;;;;;;;2.50;0.90;;;13.70;99.90;;;;;;6346652;28;20404;-77
2023/04/23 20:27:42;;;;;;;2.30;0.98;;;13.70;99.90;;;;;;6331392;28;20055;-78
2023/04/23 20:30:44;;;;;;;3.85;0.80;;;13.70;99.90;;;;;;6320676;28;20047;-78
2023/04/23 20:33:46;;;;;;;3.72;1.02;;;13.60;99.90;;;;;;6320890;28;20451;-79
2023/04/23 20:36:49;;;;;;;3.30;0.90;;;13.60;99.90;;;;;;6325719;28;20036;-80
2023/04/23 20:39:52;;;;;;;2.45;0.75;;;13.70;99.90;;;;;;6338363;28;20617;-77
2023/04/23 20:42:57;;;;;;;1.95;0.65;;;13.70;99.90;;;;;;6345883;28;20055;-80
2023/04/23 20:45:59;;;;;;;3.35;1.33;;;13.70;99.90;;;;;;6343744;28;20586;-79
2023/04/23 20:49:02;;;;;;;3.00;1.20;;;13.70;99.90;;;;;;6344439;28;20092;-78
2023/04/23 20:52:03;;;;;;;3.35;1.00;;;13.80;99.90;;;;;;6342960;28;20188;-80
2023/04/23 20:55:07;;;;;;;2.25;0.80;;;13.80;99.90;;;;;;6344292;28;20044;-78
2023/04/23 20:58:10;;;;;;;2.00;0.70;;;13.80;99.90;;;;;;6295513;28;20049;-77
2023/04/23 21:01:12;;;;;;;3.33;0.70;;;13.80;99.90;;;;;;6295450;28;20060;-79
2023/04/23 21:04:13;;;;;;;2.50;1.20;;;13.80;99.90;;;;;;6313719;28;20067;-80
2023/04/23 21:07:15;;;;;;;3.13;1.17;;;13.80;99.90;;;;;;6319224;28;20047;-78
2023/04/23 21:10:18;;;;;;;3.38;1.33;;;13.80;99.90;;;;;;6320414;28;20044;-79
2023/04/23 21:13:21;;;;;;;1.75;0.80;;;13.80;99.90;;;;;;6319326;28;20049;-77
2023/04/23 21:16:23;;;;;;;2.78;0.90;;;13.70;99.90;;;;;;6329135;28;20040;-79
2023/04/23 21:19:24;;;;;;;2.05;0.90;;;13.70;99.90;;;;;;6350287;28;20097;-78
2023/04/23 21:22:26;;;;;;;1.55;0.70;;;13.70;99.90;;;;;;6354548;28;20055;-79
2023/04/23 21:25:28;;;;;;;1.75;0.80;;;13.80;99.90;;;;;;6322729;28;21866;-78
2023/04/23 21:28:32;;;;;;;1.65;0.68;;;13.80;99.90;;;;;;6320220;28;20047;-78
2023/04/23 21:31:42;;;;;;;2.42;0.98;;;13.80;99.90;;;;;;6321633;28;20048;-76
2023/04/23 21:34:45;;;;;;;1.73;0.70;;;13.80;99.90;;;;;;6323505;28;20067;-78
2023/04/23 21:37:47;;;;;;;2.78;0.90;;;13.80;99.90;;;;;;6331700;28;20501;-79
2023/04/23 21:40:49;;;;;;;2.10;0.88;;;13.80;99.90;;;;;;6343678;28;20040;-77
2023/04/23 21:43:52;;;;;;;1.63;0.60;;;13.70;99.90;;;;;;6329233;28;20040;-77
2023/04/23 21:46:54;;;;;;;2.10;0.73;;;13.70;99.90;;;;;;6330542;28;20044;-78
2023/04/23 21:49:56;;;;;;;1.85;0.70;;;13.70;99.90;;;;;;6322707;28;20071;-80
2023/04/23 21:52:59;;;;;;;2.35;0.90;;;13.80;99.90;;;;;;6322467;28;20052;-80
2023/04/23 21:56:01;;;;;;;3.10;1.00;;;13.80;99.90;;;;;;6322184;28;20054;-78
2023/04/23 21:59:04;;;;;;;2.17;0.73;;;13.80;99.90;;;;;;6322533;28;20048;-79
